Time;durP1;ratioP1;P1;durP2;ratioP2;P2;SDS_P1;SDS_P2;PMS_P1;PMS_P2;Temp;Humidity;BMP_temperature;BMP_pressure;BME280_temperature;BME280_humidity;BME280_pressure;Samples;Min_cycle;Max_cycle;Signal;HPM_P1;HPM_P2
2022/10/04 00:01:41;;;;;;;18.52;4.75;;;21.00;67.40;;;;;;4858496;29;20025;-71
2022/10/04 00:04:13;;;;;;;18.70;5.22;;;20.90;67.40;;;;;;4862291;29;20459;-71
2022/10/04 00:06:46;;;;;;;21.73;5.60;;;20.90;67.40;;;;;;4856444;29;20033;-71
2022/10/04 00:09:22;;;;;;;30.10;7.90;;;21.00;67.60;;;;;;4854780;29;20112;-71
2022/10/04 00:11:51;;;;;;;30.35;7.88;;;21.00;67.60;;;;;;4856864;29;20595;-71
2022/10/04 00:14:35;;;;;;;35.05;8.65;;;21.00;67.80;;;;;;4856549;29;20124;-71
2022/10/04 00:17:09;;;;;;;35.53;9.07;;;21.00;67.90;;;;;;4856349;29;20048;-71
2022/10/04 00:19:50;;;;;;;36.83;8.85;;;21.10;67.90;;;;;;4853697;29;20064;-71
2022/10/04 00:22:21;;;;;;;30.60;9.30;;;21.10;68.10;;;;;;4862594;29;20557;-71
2022/10/04 00:25:12;;;;;;;37.40;9.75;;;21.10;68.10;;;;;;4858088;29;20029;-71
2022/10/04 00:27:59;;;;;;;36.30;10.48;;;21.10;68.10;;;;;;4864244;29;20037;-70
2022/10/04 00:30:36;;;;;;;37.55;10.50;;;21.10;68.00;;;;;;4862424;29;20396;-71
2022/10/04 00:33:03;;;;;;;41.92;10.32;;;21.10;68.00;;;;;;4863162;29;20037;-71
2022/10/04 00:35:29;;;;;;;36.42;11.00;;;21.20;68.00;;;;;;4869087;29;20033;-71
2022/10/04 00:38:07;;;;;;;51.83;12.40;;;21.20;68.00;;;;;;4875474;29;20438;-71
2022/10/04 00:40:41;;;;;;;46.72;11.55;;;21.20;68.00;;;;;;4855569;29;20033;-71
2022/10/04 00:43:23;;;;;;;47.75;12.60;;;21.20;68.00;;;;;;4860663;29;20428;-71
2022/10/04 00:46:08;;;;;;;45.92;12.45;;;21.20;68.00;;;;;;4855424;29;20037;-71
2022/10/04 00:48:37;;;;;;;46.63;11.85;;;21.20;68.60;;;;;;4863951;29;20033;-71
2022/10/04 00:51:25;;;;;;;43.03;11.45;;;21.20;68.10;;;;;;4862902;29;20110;-71
2022/10/04 00:53:51;;;;;;;39.78;11.13;;;21.20;68.10;;;;;;4861535;29;20021;-71
2022/10/04 00:56:28;;;;;;;38.90;10.95;;;21.10;68.10;;;;;;4866175;29;20052;-71
2022/10/04 00:58:56;;;;;;;38.10;9.73;;;21.20;68.20;;;;;;4859865;29;20027;-71
2022/10/04 01:01:25;;;;;;;40.28;11.10;;;21.20;68.20;;;;;;4867154;29;20482;-72
2022/10/04 01:03:55;;;;;;;38.42;9.98;;;21.10;68.10;;;;;;4864481;29;20081;-71
2022/10/04 01:06:22;;;;;;;42.25;11.10;;;21.10;68.20;;;;;;4868123;29;20032;-71
2022/10/04 01:08:55;;;;;;;41.20;10.90;;;21.10;68.20;;;;;;4862300;29;20048;-72
2022/10/04 01:11:29;;;;;;;40.60;11.07;;;21.10;68.20;;;;;;4855070;29;20045;-71
2022/10/04 01:14:18;;;;;;;43.53;12.20;;;21.10;68.30;;;;;;4868226;29;20554;-71
2022/10/04 01:16:44;;;;;;;45.63;11.80;;;21.10;68.30;;;;;;4862415;29;20033;-71
2022/10/04 01:19:23;;;;;;;46.35;11.85;;;21.20;68.40;;;;;;4863599;29;20281;-71
2022/10/04 01:22:10;;;;;;;48.67;12.50;;;21.20;68.50;;;;;;4868038;29;20556;-71
2022/10/04 01:24:38;;;;;;;38.92;10.98;;;21.20;68.40;;;;;;4874515;29;20033;-71
2022/10/04 01:27:36;;;;;;;36.28;11.50;;;21.20;68.40;;;;;;4861739;29;20032;-71
2022/10/04 01:30:08;;;;;;;38.08;11.55;;;21.20;68.30;;;;;;4869665;29;20037;-71
2022/10/04 01:32:34;;;;;;;34.03;9.82;;;21.20;68.30;;;;;;4862660;29;20056;-71
2022/10/04 01:35:00;;;;;;;37.17;11.15;;;21.30;68.30;;;;;;4862490;29;20570;-72
2022/10/04 01:37:26;;;;;;;36.50;10.48;;;21.30;68.20;;;;;;4863468;29;20044;-71
2022/10/04 01:39:52;;;;;;;36.22;10.23;;;21.20;68.20;;;;;;4865559;29;20550;-71
2022/10/04 01:42:40;;;;;;;35.67;10.43;;;21.30;68.20;;;;;;4857558;29;20033;-72
2022/10/04 01:45:28;;;;;;;36.70;10.75;;;21.20;68.20;;;;;;4865857;29;20554;-72
2022/10/04 01:47:58;;;;;;;36.25;10.85;;;21.30;68.20;;;;;;4863717;29;20033;-72
2022/10/04 01:50:36;;;;;;;39.17;10.18;;;21.20;68.20;;;;;;4865675;29;20029;-72
2022/10/04 01:53:18;;;;;;;34.25;11.07;;;21.20;68.20;;;;;;4877362;29;20459;-72
2022/10/04 01:55:49;;;;;;;38.58;10.95;;;21.20;68.20;;;;;;4864877;29;20461;-72
2022/10/04 01:58:26;;;;;;;33.40;9.52;;;21.20;68.30;;;;;;4858520;29;20042;-71
2022/10/04 02:01:04;;;;;;;31.58;9.45;;;21.20;68.30;;;;;;4861638;29;20045;-72
2022/10/04 02:03:39;;;;;;;33.47;9.40;;;21.20;68.30;;;;;;4863411;29;20033;-71
2022/10/04 02:06:09;;;;;;;33.30;10.13;;;21.20;68.30;;;;;;4863572;29;20422;-71
2022/10/04 02:08:40;;;;;;;32.63;9.23;;;21.20;68.40;;;;;;4870128;29;20029;-72
2022/10/04 02:11:06;;;;;;;34.95;9.25;;;21.20;68.30;;;;;;4864047;29;20033;-72
2022/10/04 02:13:38;;;;;;;34.10;9.65;;;21.10;68.30;;;;;;4869393;29;20037;-72
2022/10/04 02:16:09;;;;;;;30.98;8.52;;;21.10;68.30;;;;;;4901274;23;20052;-72
2022/10/04 02:18:42;;;;;;;29.67;8.80;;;21.10;68.30;;;;;;4921000;29;20047;-72
2022/10/04 02:21:09;;;;;;;31.90;9.65;;;21.10;68.30;;;;;;4919743;29;20059;-72
2022/10/04 02:23:36;;;;;;;34.13;9.20;;;21.10;68.40;;;;;;4906125;29;20362;-72
2022/10/04 02:26:06;;;;;;;30.42;9.80;;;21.10;68.40;;;;;;4921954;29;20047;-72
2022/10/04 02:28:33;;;;;;;36.50;9.98;;;21.10;68.40;;;;;;4899278;29;20040;-73
2022/10/04 02:33:48;;;;;;;23.25;7.85;;;21.10;68.40;;;;;;4905420;29;20128;-72
2022/10/04 02:36:16;;;;;;;32.00;8.65;;;21.10;68.30;;;;;;4885848;29;20086;-73
2022/10/04 02:39:07;;;;;;;32.58;8.27;;;21.10;68.30;;;;;;4901457;29;20103;-72
2022/10/04 02:41:40;;;;;;;34.75;9.50;;;21.10;68.30;;;;;;4899184;29;20073;-72
2022/10/04 02:44:25;;;;;;;31.42;9.25;;;21.10;68.30;;;;;;4901449;29;20068;-72
2022/10/04 02:46:51;;;;;;;29.17;8.48;;;21.10;68.30;;;;;;4898384;29;20091;-72
2022/10/04 02:49:33;;;;;;;26.60;8.68;;;21.10;68.20;;;;;;4900963;29;20035;-72
2022/10/04 02:52:11;;;;;;;27.75;8.05;;;21.10;68.20;;;;;;4903605;29;20036;-73
2022/10/04 02:55:01;;;;;;;28.02;8.40;;;21.10;68.20;;;;;;4901523;29;20045;-73
2022/10/04 02:57:30;;;;;;;28.65;8.60;;;21.10;68.20;;;;;;4907514;29;20119;-73
2022/10/04 03:00:14;;;;;;;27.33;7.97;;;21.10;68.20;;;;;;4903228;29;20020;-73
2022/10/04 03:02:41;;;;;;;27.45;7.93;;;21.10;68.20;;;;;;4901771;29;20060;-73
2022/10/04 03:05:10;;;;;;;26.08;8.25;;;21.10;68.20;;;;;;4905347;29;20036;-73
2022/10/04 03:07:38;;;;;;;24.52;7.70;;;21.10;68.20;;;;;;4896618;29;20279;-73
2022/10/04 03:10:14;;;;;;;23.38;7.05;;;21.10;68.20;;;;;;4897235;29;20085;-73
2022/10/04 03:12:40;;;;;;;23.58;6.97;;;21.10;68.20;;;;;;4907678;29;20047;-72
2022/10/04 03:15:11;;;;;;;24.50;7.32;;;21.10;68.20;;;;;;4898990;29;20037;-72
2022/10/04 03:17:41;;;;;;;25.45;7.90;;;21.10;68.20;;;;;;4903107;29;20032;-72
2022/10/04 03:20:09;;;;;;;26.23;7.80;;;21.10;68.20;;;;;;4898356;29;20044;-73
2022/10/04 03:22:35;;;;;;;23.00;6.93;;;21.10;68.20;;;;;;4902925;29;20033;-73
2022/10/04 03:25:01;;;;;;;24.35;7.32;;;21.10;68.20;;;;;;4905071;29;20029;-73
2022/10/04 03:27:32;;;;;;;24.35;7.22;;;21.10;68.20;;;;;;4902634;29;20025;-73
2022/10/04 03:30:00;;;;;;;23.70;7.55;;;21.10;68.20;;;;;;4898233;29;20111;-73
2022/10/04 03:32:29;;;;;;;24.20;7.32;;;21.10;68.20;;;;;;4898261;29;20033;-73
2022/10/04 03:34:58;;;;;;;25.42;7.55;;;21.10;68.20;;;;;;4903183;29;20512;-73
2022/10/04 03:37:25;;;;;;;25.20;7.07;;;21.10;68.20;;;;;;4901894;29;20080;-72
2022/10/04 03:39:54;;;;;;;24.90;7.63;;;21.10;68.20;;;;;;4884266;29;20072;-73
2022/10/04 03:42:29;;;;;;;21.42;6.72;;;21.10;68.20;;;;;;4894371;29;20497;-72
2022/10/04 03:44:59;;;;;;;22.33;6.90;;;21.00;68.10;;;;;;4910307;29;20032;-72
2022/10/04 03:47:30;;;;;;;24.85;7.55;;;21.10;68.20;;;;;;4899911;29;20040;-72
2022/10/04 03:50:05;;;;;;;23.30;7.05;;;21.10;68.20;;;;;;4887914;29;20032;-73
2022/10/04 03:52:34;;;;;;;20.35;6.45;;;21.10;68.20;;;;;;4898298;29;20119;-72
2022/10/04 03:55:04;;;;;;;24.20;7.22;;;21.10;68.20;;;;;;4906482;29;20038;-72
2022/10/04 03:57:31;;;;;;;24.40;7.30;;;21.10;68.20;;;;;;4898550;29;20055;-72
2022/10/04 03:59:58;;;;;;;20.83;6.82;;;21.10;68.10;;;;;;4895310;29;20036;-72
2022/10/04 04:02:51;;;;;;;18.52;6.00;;;21.10;68.10;;;;;;4913356;29;20032;-72
2022/10/04 04:05:30;;;;;;;20.70;7.25;;;21.10;68.10;;;;;;4889601;29;20032;-72
2022/10/04 04:08:02;;;;;;;23.67;7.03;;;21.10;68.10;;;;;;4895246;29;20040;-72
2022/10/04 04:10:34;;;;;;;22.63;6.53;;;21.10;68.00;;;;;;4899966;29;20503;-72
2022/10/04 04:13:03;;;;;;;20.27;6.55;;;21.10;68.00;;;;;;4898512;29;20028;-73
2022/10/04 04:15:31;;;;;;;20.63;6.05;;;21.10;68.10;;;;;;4895130;29;20064;-73
2022/10/04 04:18:02;;;;;;;21.70;6.15;;;21.10;68.00;;;;;;4901702;29;20036;-73
2022/10/04 04:20:34;;;;;;;17.73;6.32;;;21.10;68.10;;;;;;4900220;29;20057;-73
2022/10/04 04:23:01;;;;;;;19.38;6.53;;;21.10;68.10;;;;;;4898014;29;20032;-73
2022/10/04 04:25:31;;;;;;;18.88;6.13;;;21.10;68.10;;;;;;4897570;29;20068;-73
2022/10/04 04:28:13;;;;;;;20.08;6.15;;;21.10;68.10;;;;;;4894264;29;20059;-73
2022/10/04 04:30:45;;;;;;;21.83;6.55;;;21.00;68.10;;;;;;4899919;29;20511;-73
2022/10/04 04:33:22;;;;;;;18.30;5.80;;;21.00;68.10;;;;;;4908775;29;20050;-73
2022/10/04 04:35:54;;;;;;;18.73;5.90;;;21.00;68.00;;;;;;4902348;29;20039;-73
2022/10/04 04:38:23;;;;;;;21.50;6.07;;;21.00;68.00;;;;;;4920068;29;20032;-73
2022/10/04 04:40:54;;;;;;;19.40;5.95;;;21.00;68.00;;;;;;4899267;29;20044;-73
2022/10/04 04:43:23;;;;;;;19.08;5.88;;;21.10;68.00;;;;;;4889968;29;20168;-73
2022/10/04 04:45:50;;;;;;;17.63;5.82;;;21.00;68.00;;;;;;4902240;29;20047;-73
2022/10/04 04:48:18;;;;;;;16.15;5.43;;;21.00;67.90;;;;;;4900362;29;20119;-73
2022/10/04 04:50:52;;;;;;;18.23;5.43;;;21.00;67.90;;;;;;4900473;29;20025;-73
2022/10/04 04:53:25;;;;;;;16.08;5.13;;;21.00;67.90;;;;;;4901676;29;20036;-73
2022/10/04 04:55:54;;;;;;;18.00;5.65;;;21.00;67.90;;;;;;4902932;29;20032;-73
2022/10/04 04:58:26;;;;;;;16.67;5.40;;;21.00;67.90;;;;;;4904355;29;20449;-73
2022/10/04 05:01:14;;;;;;;18.15;6.20;;;21.10;67.90;;;;;;4893797;29;20021;-73
2022/10/04 05:03:41;;;;;;;18.55;5.45;;;21.00;67.80;;;;;;4875076;29;20091;-73
2022/10/04 05:06:27;;;;;;;19.50;6.18;;;21.00;67.90;;;;;;4903293;29;20040;-73
2022/10/04 05:08:52;;;;;;;16.38;5.38;;;21.10;67.90;;;;;;4884246;29;20489;-73
2022/10/04 05:11:21;;;;;;;15.25;5.72;;;21.10;67.90;;;;;;4903304;29;20040;-74
2022/10/04 05:13:51;;;;;;;18.90;5.50;;;21.00;67.90;;;;;;4896769;29;20036;-73
2022/10/04 05:16:37;;;;;;;16.40;5.32;;;21.00;67.90;;;;;;4894622;29;20033;-73
2022/10/04 05:19:29;;;;;;;14.40;4.95;;;21.10;67.90;;;;;;4909466;29;20032;-73
2022/10/04 05:21:58;;;;;;;18.48;5.53;;;21.00;67.80;;;;;;4913885;29;20036;-73
2022/10/04 05:24:33;;;;;;;17.75;5.68;;;21.00;67.80;;;;;;4905924;29;20041;-73
2022/10/04 05:27:04;;;;;;;13.57;4.68;;;21.00;67.80;;;;;;4896763;29;20254;-73
2022/10/04 05:29:36;;;;;;;18.95;5.70;;;21.00;67.70;;;;;;4908008;29;20063;-73
2022/10/04 05:32:08;;;;;;;15.77;5.07;;;21.00;67.70;;;;;;4898945;29;20039;-74
2022/10/04 05:34:40;;;;;;;17.05;5.03;;;21.00;67.70;;;;;;4901010;29;20036;-78
2022/10/04 05:37:31;;;;;;;15.02;5.15;;;21.00;67.70;;;;;;4901680;29;20053;-72
2022/10/04 05:40:10;;;;;;;15.63;4.72;;;21.00;68.30;;;;;;4886090;29;20036;-73
2022/10/04 05:42:44;;;;;;;15.75;4.57;;;21.10;69.10;;;;;;4915884;29;20369;-72
2022/10/04 05:45:30;;;;;;;18.85;4.40;;;21.10;68.80;;;;;;4896309;29;20045;-71
2022/10/04 05:48:07;;;;;;;17.33;3.72;;;21.10;70.40;;;;;;4895713;29;20029;-73
2022/10/04 05:50:42;;;;;;;18.90;4.25;;;21.10;70.90;;;;;;4899212;29;20024;-72
2022/10/04 05:53:13;;;;;;;14.25;4.15;;;21.10;70.70;;;;;;4904220;29;20111;-72
2022/10/04 05:56:06;;;;;;;14.00;3.88;;;21.10;70.30;;;;;;4901801;29;20045;-72
2022/10/04 05:58:52;;;;;;;16.20;4.47;;;21.10;70.60;;;;;;4899042;29;20089;-73
2022/10/04 06:01:41;;;;;;;16.27;4.40;;;21.00;70.10;;;;;;4895390;29;20051;-72
2022/10/04 06:04:22;;;;;;;14.10;4.18;;;21.00;69.60;;;;;;4890195;29;20150;-72
2022/10/04 06:06:57;;;;;;;12.60;4.22;;;21.10;69.20;;;;;;4879565;29;20084;-72
2022/10/04 06:09:49;;;;;;;12.02;4.32;;;21.00;68.90;;;;;;4886435;29;20107;-73
2022/10/04 06:12:41;;;;;;;14.48;3.95;;;21.00;69.10;;;;;;4897178;29;20037;-72
2022/10/04 06:15:31;;;;;;;14.27;4.07;;;21.10;70.90;;;;;;4898154;29;20036;-73
2022/10/04 06:18:24;;;;;;;12.73;3.97;;;21.00;69.60;;;;;;4896805;29;20088;-73
2022/10/04 06:21:20;;;;;;;12.40;4.50;;;21.10;69.80;;;;;;4896989;29;20764;-72
2022/10/04 06:24:18;;;;;;;14.35;4.28;;;21.10;69.90;;;;;;4897485;29;20123;-72
2022/10/04 06:26:50;;;;;;;12.32;3.65;;;21.10;70.00;;;;;;4909085;29;20064;-72
2022/10/04 06:29:22;;;;;;;17.42;4.47;;;21.00;70.30;;;;;;4900917;29;20071;-71
2022/10/04 06:31:53;;;;;;;17.60;4.53;;;21.10;70.40;;;;;;4902616;29;20040;-72
2022/10/04 06:34:44;;;;;;;18.42;3.95;;;21.10;71.20;;;;;;4883751;29;20038;-72
2022/10/04 06:37:16;;;;;;;14.80;4.32;;;21.10;71.20;;;;;;4913933;29;20039;-72
2022/10/04 06:40:04;;;;;;;17.20;3.70;;;21.10;70.90;;;;;;4878366;29;20048;-72
2022/10/04 06:42:56;;;;;;;14.43;4.28;;;21.10;70.40;;;;;;4893365;29;20028;-72
2022/10/04 06:45:40;;;;;;;15.07;4.32;;;21.10;71.10;;;;;;4893213;29;20186;-72
2022/10/04 06:48:09;;;;;;;14.18;3.67;;;21.00;70.80;;;;;;4898619;29;20039;-73
2022/10/04 06:51:03;;;;;;;17.00;3.50;;;21.10;70.90;;;;;;4904707;29;20106;-72
2022/10/04 06:53:52;;;;;;;21.33;4.03;;;21.10;71.20;;;;;;4909018;29;20043;-72
2022/10/04 06:56:46;;;;;;;15.07;3.78;;;21.10;71.40;;;;;;4903526;29;20112;-72
2022/10/04 06:59:30;;;;;;;15.57;3.53;;;21.00;71.20;;;;;;4902441;29;20492;-73
2022/10/04 07:02:02;;;;;;;10.23;3.42;;;21.00;71.30;;;;;;4894873;29;20079;-72
2022/10/04 07:05:04;;;;;;;16.70;3.55;;;21.00;71.10;;;;;;4903737;29;20036;-72
2022/10/04 07:07:35;;;;;;;14.95;4.07;;;21.00;71.50;;;;;;4901528;29;20036;-72
2022/10/04 07:10:54;;;;;;;13.55;4.00;;;21.00;71.80;;;;;;4878841;29;20040;-73
2022/10/04 07:13:22;;;;;;;16.35;4.65;;;21.00;71.50;;;;;;4904032;29;20119;-73
2022/10/04 07:15:59;;;;;;;12.93;3.55;;;21.00;71.90;;;;;;4892541;29;20039;-72
2022/10/04 07:19:04;;;;;;;15.07;4.07;;;21.00;72.10;;;;;;4900960;29;20037;-72
2022/10/04 07:21:45;;;;;;;14.23;4.00;;;21.00;71.60;;;;;;4892884;29;20035;-73
2022/10/04 07:24:31;;;;;;;14.80;4.43;;;21.10;71.10;;;;;;4890260;29;20397;-72
2022/10/04 07:27:00;;;;;;;12.27;3.72;;;21.10;71.60;;;;;;4892320;29;20482;-72
2022/10/04 07:29:38;;;;;;;13.38;3.63;;;21.10;72.00;;;;;;4892674;29;20084;-72
2022/10/04 07:32:07;;;;;;;21.63;5.13;;;21.20;73.00;;;;;;4898560;29;20032;-73
2022/10/04 07:34:42;;;;;;;18.08;4.03;;;21.20;70.80;;;;;;4891027;29;20584;-72
2022/10/04 07:37:11;;;;;;;18.02;4.32;;;21.20;70.70;;;;;;4893376;29;20111;-73
2022/10/04 07:39:59;;;;;;;165.30;13.87;;;21.10;71.20;;;;;;4893328;29;20033;-73
2022/10/04 07:42:43;;;;;;;334.25;24.98;;;21.20;70.00;;;;;;4902459;29;20316;-73
2022/10/04 07:45:29;;;;;;;229.68;18.70;;;21.10;69.40;;;;;;4898885;29;20119;-73
2022/10/04 07:48:15;;;;;;;107.97;10.00;;;21.20;69.30;;;;;;4901656;29;20039;-73
2022/10/04 07:51:00;;;;;;;72.78;8.10;;;21.20;69.30;;;;;;4896413;29;20041;-73
2022/10/04 07:54:03;;;;;;;49.17;6.80;;;21.20;69.20;;;;;;4901430;29;20032;-74
2022/10/04 07:57:10;;;;;;;56.67;6.55;;;21.10;69.60;;;;;;4892445;29;20087;-75
2022/10/04 07:59:55;;;;;;;36.17;8.43;;;21.10;70.00;;;;;;4856136;29;20041;-73
2022/10/04 08:02:42;;;;;;;55.63;9.15;;;21.20;69.90;;;;;;4899558;29;20044;-73
2022/10/04 08:05:35;;;;;;;45.08;10.35;;;21.20;70.10;;;;;;4902790;29;20331;-73
2022/10/04 08:08:13;;;;;;;46.45;9.35;;;21.10;70.30;;;;;;4905213;29;20043;-74
2022/10/04 08:11:06;;;;;;;40.78;8.85;;;21.20;70.40;;;;;;4895498;29;20037;-72
2022/10/04 08:13:41;;;;;;;33.70;8.40;;;21.20;70.50;;;;;;4905694;29;20033;-73
2022/10/04 08:16:52;;;;;;;36.80;7.75;;;21.20;70.30;;;;;;4910035;29;20032;-72
2022/10/04 08:19:44;;;;;;;36.38;6.85;;;21.20;70.50;;;;;;4895374;29;20036;-73
2022/10/04 08:22:28;;;;;;;48.70;7.82;;;21.20;70.30;;;;;;4886410;29;20056;-72
2022/10/04 08:25:01;;;;;;;38.08;7.35;;;21.20;70.30;;;;;;4903024;29;20726;-72
2022/10/04 08:27:38;;;;;;;38.15;8.20;;;21.20;69.80;;;;;;4897042;29;20041;-73
2022/10/04 08:30:14;;;;;;;39.10;8.90;;;21.20;70.20;;;;;;4896647;29;20048;-73
2022/10/04 08:33:00;;;;;;;32.30;6.88;;;21.20;70.30;;;;;;4896832;29;20092;-73
2022/10/04 08:35:38;;;;;;;24.83;7.40;;;21.10;70.80;;;;;;4895395;29;20555;-72
2022/10/04 08:38:53;;;;;;;23.10;6.63;;;21.10;70.00;;;;;;4895248;29;20120;-72
2022/10/04 08:42:09;;;;;;;25.60;6.93;;;21.10;69.50;;;;;;4873441;29;20509;-73
2022/10/04 08:45:03;;;;;;;25.65;6.53;;;21.10;69.80;;;;;;4915665;29;20044;-74
2022/10/04 08:48:05;;;;;;;23.13;6.70;;;21.10;70.00;;;;;;4915312;29;20114;-73
2022/10/04 08:50:40;;;;;;;18.75;6.70;;;21.10;70.20;;;;;;4915253;29;20036;-72
2022/10/04 08:53:44;;;;;;;30.10;6.20;;;21.10;70.10;;;;;;4897866;29;20040;-73
2022/10/04 08:56:23;;;;;;;33.10;6.55;;;21.10;69.90;;;;;;4914747;29;20485;-70
2022/10/04 08:59:06;;;;;;;24.30;6.47;;;21.10;69.90;;;;;;4914847;29;20114;-71
2022/10/04 09:01:56;;;;;;;24.83;6.93;;;21.10;69.60;;;;;;4908895;29;20028;-71
2022/10/04 09:04:40;;;;;;;20.98;6.18;;;21.10;69.40;;;;;;4894939;29;20036;-71
2022/10/04 09:07:28;;;;;;;20.55;6.85;;;21.20;70.80;;;;;;4896371;29;20489;-70
2022/10/04 09:10:16;;;;;;;24.25;6.93;;;21.20;70.60;;;;;;4890729;29;20518;-71
2022/10/04 09:13:21;;;;;;;21.27;6.20;;;21.20;70.70;;;;;;4892486;29;20127;-71
2022/10/04 09:15:57;;;;;;;21.33;6.53;;;21.20;70.50;;;;;;4891874;29;20051;-71
2022/10/04 09:18:54;;;;;;;20.67;6.30;;;21.20;70.00;;;;;;4893285;29;20025;-71
2022/10/04 09:21:48;;;;;;;17.95;6.80;;;21.20;69.80;;;;;;4891836;29;20024;-71
2022/10/04 09:24:51;;;;;;;21.58;6.30;;;21.20;69.90;;;;;;4899405;29;20409;-71
2022/10/04 09:27:29;;;;;;;18.90;5.97;;;21.20;70.00;;;;;;4892276;29;20041;-72
2022/10/04 09:30:18;;;;;;;20.48;6.25;;;21.30;70.10;;;;;;4895349;29;20119;-70
2022/10/04 09:33:09;;;;;;;21.92;6.22;;;21.30;70.30;;;;;;4894243;29;20041;-71
2022/10/04 09:35:54;;;;;;;20.50;5.75;;;21.30;71.00;;;;;;4894284;29;20431;-72
2022/10/04 09:38:41;;;;;;;17.70;5.70;;;21.30;69.70;;;;;;4878928;29;20033;-72
2022/10/04 09:41:29;;;;;;;23.50;5.75;;;21.30;70.30;;;;;;4898295;29;20062;-72
2022/10/04 09:43:54;;;;;;;20.73;7.00;;;21.30;70.10;;;;;;4894744;29;20481;-72
2022/10/04 09:46:28;;;;;;;18.15;6.38;;;21.30;70.00;;;;;;4902271;29;20064;-71
2022/10/04 09:49:04;;;;;;;16.15;5.93;;;21.30;70.00;;;;;;4894270;29;20043;-72
2022/10/04 09:51:51;;;;;;;21.13;6.47;;;21.30;70.30;;;;;;4901652;29;20083;-77
2022/10/04 09:54:37;;;;;;;21.38;5.85;;;21.30;70.40;;;;;;4889743;29;20094;-77
2022/10/04 09:57:27;;;;;;;16.67;6.30;;;21.30;70.10;;;;;;4913819;29;20421;-72
2022/10/04 10:00:07;;;;;;;20.25;7.28;;;21.30;69.70;;;;;;4912038;29;20028;-71
2022/10/04 10:03:11;;;;;;;19.40;7.80;;;21.20;68.90;;;;;;4895844;29;20053;-71
2022/10/04 10:06:02;;;;;;;17.08;7.00;;;21.20;68.60;;;;;;4902378;29;20055;-72
2022/10/04 10:08:46;;;;;;;19.98;6.55;;;21.20;68.50;;;;;;4893862;29;20084;-71
2022/10/04 10:15:01;;;;;;;17.95;6.93;;;21.30;68.40;;;;;;4897961;29;20040;-72
2022/10/04 10:17:43;;;;;;;17.40;7.15;;;21.30;68.50;;;;;;4916537;23;20103;-75
2022/10/04 10:20:31;;;;;;;14.07;6.28;;;21.30;68.50;;;;;;4861986;29;20462;-75
2022/10/04 10:23:05;;;;;;;15.55;5.78;;;21.30;68.50;;;;;;4894235;29;20031;-76
2022/10/04 10:25:37;;;;;;;13.23;6.15;;;21.30;68.60;;;;;;4897229;29;20072;-76
2022/10/04 10:28:27;;;;;;;15.60;6.70;;;21.30;68.50;;;;;;4913719;29;20032;-76
2022/10/04 10:31:12;;;;;;;19.88;6.90;;;21.30;68.50;;;;;;4913975;29;20560;-76
2022/10/04 10:34:04;;;;;;;14.85;6.82;;;21.30;68.40;;;;;;4913290;29;20087;-76
2022/10/04 10:36:33;;;;;;;15.73;6.32;;;21.30;68.50;;;;;;4921036;29;20523;-76
2022/10/04 10:39:20;;;;;;;13.18;6.05;;;21.30;68.50;;;;;;4932342;29;20043;-76
2022/10/04 10:42:31;;;;;;;13.85;6.00;;;21.30;68.40;;;;;;4918894;29;20115;-77
2022/10/04 10:45:16;;;;;;;15.55;6.70;;;21.30;68.70;;;;;;4910250;29;20031;-75
2022/10/04 10:47:55;;;;;;;18.73;6.90;;;21.30;68.60;;;;;;4912683;29;20036;-75
2022/10/04 10:50:57;;;;;;;19.15;6.55;;;21.30;68.70;;;;;;4896693;29;20040;-76
2022/10/04 10:53:23;;;;;;;14.45;6.13;;;21.30;68.70;;;;;;4913576;29;20115;-76
2022/10/04 10:56:22;;;;;;;17.00;6.03;;;21.30;68.70;;;;;;4912984;29;20171;-76
2022/10/04 10:59:10;;;;;;;16.52;5.80;;;21.30;69.00;;;;;;4920821;29;20101;-82
2022/10/04 11:01:55;;;;;;;13.10;6.40;;;21.30;68.80;;;;;;4932651;29;20047;-84
2022/10/04 11:04:53;;;;;;;12.10;4.93;;;21.20;67.40;;;;;;4930682;29;20032;-81
2022/10/04 11:07:22;;;;;;;18.45;7.82;;;21.20;68.30;;;;;;4897454;29;20514;-82
2022/10/04 11:10:17;;;;;;;17.23;7.63;;;21.10;66.90;;;;;;4905658;29;20508;-82
2022/10/04 11:13:20;;;;;;;18.95;10.45;;;21.00;67.00;;;;;;4921353;29;20059;-83
2022/10/04 11:16:24;;;;;;;32.92;10.77;;;21.00;66.10;;;;;;4930084;29;20067;-82
2022/10/04 11:19:32;;;;;;;24.15;9.57;;;21.00;66.20;;;;;;4923978;29;20107;-83
2022/10/04 11:22:23;;;;;;;21.48;7.65;;;21.00;66.00;;;;;;4895030;29;20044;-82
2022/10/04 11:25:40;;;;;;;13.35;4.75;;;21.00;65.40;;;;;;4916465;29;20039;-83
2022/10/04 11:28:28;;;;;;;9.88;3.92;;;20.90;64.70;;;;;;4895058;29;20554;-84
2022/10/04 11:30:57;;;;;;;14.02;4.55;;;20.90;64.40;;;;;;4932425;29;20060;-83
2022/10/04 11:34:01;;;;;;;14.05;4.30;;;20.90;63.80;;;;;;4926252;29;20392;-82
2022/10/04 11:36:48;;;;;;;8.23;3.30;;;20.90;64.00;;;;;;4924745;29;20163;-82
2022/10/04 11:39:49;;;;;;;12.15;3.33;;;20.90;63.80;;;;;;4921833;29;20043;-83
2022/10/04 11:42:44;;;;;;;13.10;3.80;;;21.00;63.50;;;;;;4896414;29;20071;-73
2022/10/04 11:45:41;;;;;;;10.77;3.25;;;20.90;63.00;;;;;;4931195;29;20031;-73
2022/10/04 11:48:47;;;;;;;9.30;2.97;;;21.00;62.70;;;;;;4927370;29;20031;-73
2022/10/04 11:51:31;;;;;;;11.57;3.50;;;21.10;63.70;;;;;;4914428;29;20582;-73
2022/10/04 11:54:37;;;;;;;12.88;3.28;;;21.20;64.00;;;;;;4911758;29;20036;-73
2022/10/04 11:57:25;;;;;;;15.77;3.40;;;21.20;64.50;;;;;;4912498;29;20154;-74
2022/10/04 12:00:07;;;;;;;7.18;3.00;;;21.30;65.80;;;;;;4923578;29;20039;-75
2022/10/04 12:03:15;;;;;;;15.35;3.67;;;21.30;65.20;;;;;;4927450;29;20043;-75
2022/10/04 12:06:12;;;;;;;13.02;3.42;;;21.30;65.50;;;;;;4904986;29;20092;-74
2022/10/04 12:08:50;;;;;;;20.58;5.65;;;21.20;65.10;;;;;;4913814;29;20024;-75
2022/10/04 12:14:45;;;;;;;18.85;7.32;;;21.20;64.10;;;;;;4912914;29;20040;-72
2022/10/04 12:17:21;;;;;;;16.20;7.38;;;21.20;63.00;;;;;;4907254;29;20050;-72
2022/10/04 12:19:58;;;;;;;20.02;7.13;;;21.20;62.50;;;;;;4917150;29;20489;-72
2022/10/04 12:22:53;;;;;;;19.13;7.97;;;21.20;63.50;;;;;;4923504;29;20032;-73
2022/10/04 12:25:46;;;;;;;20.02;7.13;;;21.10;63.80;;;;;;4927464;29;20038;-72
2022/10/04 12:28:27;;;;;;;21.85;8.05;;;21.20;63.30;;;;;;4917421;29;20036;-73
2022/10/04 12:31:21;;;;;;;17.75;7.13;;;21.10;64.00;;;;;;4911159;29;20032;-73
2022/10/04 12:34:14;;;;;;;16.20;7.22;;;21.20;63.70;;;;;;4917221;29;20040;-72
2022/10/04 12:37:01;;;;;;;19.58;6.97;;;21.10;64.10;;;;;;4907075;29;20044;-73
2022/10/04 12:39:47;;;;;;;14.27;7.25;;;21.10;64.10;;;;;;4912642;29;20051;-72
2022/10/04 12:42:28;;;;;;;16.15;6.82;;;21.10;64.30;;;;;;4914117;29;20044;-73
2022/10/04 12:45:21;;;;;;;17.50;6.57;;;21.10;64.20;;;;;;4916722;29;20031;-73
2022/10/04 12:48:02;;;;;;;14.90;6.32;;;21.10;64.30;;;;;;4911962;29;20024;-73
2022/10/04 12:50:34;;;;;;;12.43;6.68;;;21.20;64.40;;;;;;4913435;29;20103;-73
2022/10/04 12:53:33;;;;;;;15.60;6.60;;;21.20;64.50;;;;;;4915896;29;20111;-72
2022/10/04 12:56:02;;;;;;;12.82;5.88;;;21.10;64.40;;;;;;4909166;29;20048;-73
2022/10/04 12:58:50;;;;;;;15.73;6.50;;;21.20;64.60;;;;;;4916219;29;20091;-73
2022/10/04 13:01:31;;;;;;;13.57;6.43;;;21.20;64.70;;;;;;4912340;29;20287;-72
2022/10/04 13:04:09;;;;;;;15.13;6.43;;;21.10;64.70;;;;;;4914769;29;20051;-74
2022/10/04 13:07:18;;;;;;;12.43;5.97;;;21.10;64.70;;;;;;4915489;29;20036;-74
2022/10/04 13:10:02;;;;;;;;;;;21.20;64.90;;;;;;4901908;29;20067;-73
2022/10/04 13:12:44;;;;;;;15.07;6.40;;;21.20;64.90;;;;;;4913923;29;20006;-73
2022/10/04 13:16:01;;;;;;;12.77;6.50;;;21.20;64.90;;;;;;4914724;29;20063;-73
2022/10/04 13:18:39;;;;;;;11.27;6.05;;;21.10;65.00;;;;;;4903707;29;20056;-73
2022/10/04 13:21:24;;;;;;;17.23;6.57;;;21.10;65.10;;;;;;4931932;29;20563;-72
2022/10/04 13:24:08;;;;;;;14.27;6.18;;;21.20;65.10;;;;;;4933202;29;20027;-73
2022/10/04 13:26:43;;;;;;;15.18;6.20;;;21.20;65.10;;;;;;4933871;29;20023;-73
2022/10/04 13:29:31;;;;;;;11.18;5.18;;;21.20;65.20;;;;;;4924757;29;20036;-73
2022/10/04 13:32:09;;;;;;;13.63;6.15;;;21.20;65.20;;;;;;4924489;29;20066;-72
2022/10/04 13:34:38;;;;;;;14.63;6.10;;;21.10;65.20;;;;;;4930540;29;20036;-72
2022/10/04 13:37:32;;;;;;;11.52;5.85;;;21.20;65.30;;;;;;4922488;29;20070;-74
2022/10/04 13:40:32;;;;;;;12.20;5.90;;;21.20;65.40;;;;;;4934073;29;20040;-73
2022/10/04 13:43:20;;;;;;;14.65;5.72;;;21.20;65.40;;;;;;4918966;29;20424;-72
2022/10/04 13:46:31;;;;;;;13.48;5.50;;;21.20;65.40;;;;;;4902306;29;20071;-73
2022/10/04 13:49:15;;;;;;;12.65;5.95;;;21.10;65.40;;;;;;4913564;29;20082;-72
2022/10/04 13:58:47;;;;;;;12.07;6.00;;;21.20;65.50;;;;;;4916943;29;20039;-72
2022/10/04 14:01:24;;;;;;;10.48;5.72;;;21.10;65.50;;;;;;4933419;29;20039;-73
2022/10/04 14:04:08;;;;;;;11.35;5.60;;;21.20;65.60;;;;;;4918595;29;20024;-73